createdAt,value
2018-07-26T00:00:49.965Z,3.70
2018-07-26T00:01:49.891Z,3.30
2018-07-26T00:02:49.814Z,3.00
2018-07-26T00:03:49.740Z,3.80
2018-07-26T00:04:49.665Z,3.60
2018-07-26T00:05:49.593Z,4.50
2018-07-26T00:06:49.515Z,3.10
2018-07-26T00:07:49.453Z,3.70
2018-07-26T00:08:49.367Z,3.50
2018-07-26T00:09:49.293Z,4.10
2018-07-26T00:10:49.206Z,4.90
2018-07-26T00:11:49.131Z,4.80
2018-07-26T00:12:49.053Z,3.30
2018-07-26T00:13:48.979Z,4.60
2018-07-26T00:14:48.907Z,3.30
2018-07-26T00:15:48.830Z,4.80
2018-07-26T00:16:48.756Z,3.10
2018-07-26T00:17:48.682Z,4.90
2018-07-26T00:18:48.607Z,6.00
2018-07-26T00:19:48.533Z,3.60
2018-07-26T00:20:48.460Z,4.50
2018-07-26T00:21:48.382Z,4.80
2018-07-26T00:22:48.307Z,4.50
2018-07-26T00:23:48.232Z,3.70
2018-07-26T00:24:48.156Z,5.40
2018-07-26T00:25:48.081Z,6.20
2018-07-26T00:26:48.006Z,4.00
2018-07-26T00:27:47.932Z,3.70
2018-07-26T00:28:47.857Z,5.70
2018-07-26T00:29:47.782Z,3.90
2018-07-26T00:30:47.707Z,3.60
2018-07-26T00:31:47.634Z,4.60
2018-07-26T00:32:47.557Z,4.40
2018-07-26T00:33:47.481Z,4.10
2018-07-26T00:34:47.405Z,3.40
2018-07-26T00:35:47.319Z,3.30
2018-07-26T00:36:47.245Z,3.30
2018-07-26T00:37:47.182Z,4.90
2018-07-26T00:38:47.095Z,4.10
2018-07-26T00:39:47.020Z,6.10
2018-07-26T00:40:46.946Z,4.80
2018-07-26T00:41:46.885Z,6.90
2018-07-26T00:42:46.796Z,4.00
2018-07-26T00:43:46.722Z,3.40
2018-07-26T00:44:46.648Z,4.10
2018-07-26T00:45:46.570Z,3.30
2018-07-26T00:46:46.495Z,4.10
2018-07-26T00:47:46.419Z,3.20
2018-07-26T00:48:46.400Z,5.20
2018-07-26T00:49:46.271Z,4.60
2018-07-26T00:50:46.197Z,4.90
2018-07-26T00:51:46.122Z,4.60
2018-07-26T00:52:46.047Z,3.70
2018-07-26T00:53:45.960Z,3.30
2018-07-26T00:54:45.886Z,4.00
2018-07-26T00:55:45.811Z,4.80
2018-07-26T00:56:45.735Z,4.50
2018-07-26T00:57:45.659Z,4.10
2018-07-26T00:58:45.584Z,5.10
2018-07-26T00:59:45.510Z,6.40
2018-07-26T01:00:45.437Z,5.80
2018-07-26T01:01:45.365Z,3.90
2018-07-26T01:02:45.287Z,5.10
2018-07-26T01:03:45.211Z,6.10
2018-07-26T01:04:45.123Z,4.10
2018-07-26T01:05:45.047Z,3.70
2018-07-26T01:06:44.971Z,4.40
2018-07-26T01:07:44.897Z,5.20
2018-07-26T01:08:44.821Z,4.20
2018-07-26T01:09:44.760Z,3.80
2018-07-26T01:10:44.672Z,4.10
2018-07-26T01:11:44.597Z,6.70
2018-07-26T01:12:44.524Z,4.30
2018-07-26T01:13:44.449Z,5.40
2018-07-26T01:14:44.376Z,3.40
2018-07-26T01:15:44.300Z,3.90
2018-07-26T01:16:44.210Z,3.60
2018-07-26T01:17:44.147Z,3.90
2018-07-26T01:18:44.061Z,4.70
2018-07-26T01:19:43.986Z,4.40
2018-07-26T01:20:43.913Z,5.60
2018-07-26T01:21:43.839Z,4.80
2018-07-26T01:22:43.763Z,4.40
2018-07-26T01:23:43.691Z,4.70
2018-07-26T01:24:43.613Z,4.40
2018-07-26T01:25:43.527Z,3.40
2018-07-26T01:26:43.451Z,4.10
2018-07-26T01:27:43.376Z,4.60
2018-07-26T01:28:43.298Z,4.00
2018-07-26T01:29:43.237Z,4.00
2018-07-26T01:30:43.148Z,3.60
2018-07-26T01:31:43.074Z,5.50
2018-07-26T01:32:43.001Z,4.30
2018-07-26T01:33:42.942Z,5.40
2018-07-26T01:34:42.839Z,5.00
2018-07-26T01:35:42.767Z,4.10
2018-07-26T01:36:42.689Z,4.10
2018-07-26T01:37:42.613Z,5.40
2018-07-26T01:38:42.544Z,4.70
2018-07-26T01:39:42.464Z,5.10
2018-07-26T01:40:42.390Z,5.60
2018-07-26T01:41:42.319Z,4.00
2018-07-26T01:42:42.228Z,6.00
2018-07-26T01:43:42.153Z,7.70
2018-07-26T01:44:42.076Z,3.90
2018-07-26T01:45:42.000Z,4.00
2018-07-26T01:46:41.925Z,5.80
2018-07-26T01:47:41.863Z,4.30
2018-07-26T01:48:41.778Z,4.80
2018-07-26T01:49:41.703Z,5.40
2018-07-26T01:50:41.634Z,5.70
2018-07-26T01:51:41.543Z,5.80
2018-07-26T01:52:41.466Z,5.00
2018-07-26T01:53:41.389Z,5.60
2018-07-26T01:54:41.314Z,4.10
2018-07-26T01:55:41.240Z,4.50
2018-07-26T01:56:41.165Z,5.90
2018-07-26T01:57:41.090Z,4.80
2018-07-26T01:58:41.017Z,4.50
2018-07-26T01:59:40.927Z,7.50
2018-07-26T02:00:40.854Z,5.30
2018-07-26T02:01:40.787Z,4.00
2018-07-26T02:02:40.705Z,4.10
2018-07-26T02:03:40.630Z,4.90
2018-07-26T02:04:40.553Z,4.90
2018-07-26T02:05:40.477Z,5.00
2018-07-26T02:06:40.392Z,5.60
2018-07-26T02:07:40.316Z,4.40
2018-07-26T02:08:40.244Z,6.70
2018-07-26T02:09:40.168Z,4.50
2018-07-26T02:10:40.123Z,4.30
2018-07-26T02:11:40.019Z,5.30
2018-07-26T02:12:39.933Z,4.60
2018-07-26T02:13:39.857Z,4.20
2018-07-26T02:14:39.781Z,5.70
2018-07-26T02:15:39.706Z,4.20
2018-07-26T02:16:39.629Z,4.20
2018-07-26T02:17:39.554Z,5.60
2018-07-26T02:18:39.479Z,6.10
2018-07-26T02:19:39.393Z,4.70
2018-07-26T02:20:39.320Z,5.00
2018-07-26T02:21:39.245Z,6.70
2018-07-26T02:22:39.170Z,5.50
2018-07-26T02:23:39.096Z,4.80
2018-07-26T02:24:39.020Z,5.20
2018-07-26T02:25:38.944Z,4.30
2018-07-26T02:26:38.855Z,6.00
2018-07-26T02:27:38.780Z,5.70
2018-07-26T02:28:38.707Z,4.70
2018-07-26T02:29:38.630Z,4.90
2018-07-26T02:30:38.556Z,6.00
2018-07-26T02:31:38.486Z,5.80
2018-07-26T02:32:38.408Z,5.20
2018-07-26T02:33:38.322Z,5.20
2018-07-26T02:34:38.246Z,5.00
2018-07-26T02:35:38.171Z,5.60
2018-07-26T02:36:38.101Z,5.40
2018-07-26T02:37:38.019Z,5.50
2018-07-26T02:38:37.932Z,5.20
2018-07-26T02:39:37.872Z,6.20
2018-07-26T02:40:37.784Z,4.50
2018-07-26T02:41:37.709Z,5.00
2018-07-26T02:42:37.633Z,5.20
2018-07-26T02:43:37.559Z,5.10
2018-07-26T02:44:37.484Z,7.10
2018-07-26T02:45:37.397Z,5.20
2018-07-26T02:46:37.323Z,6.50
2018-07-26T02:47:37.248Z,7.70
2018-07-26T02:48:41.222Z,7.00
2018-07-26T02:49:39.722Z,9.00
2018-07-26T02:50:37.021Z,8.50
2018-07-26T02:51:36.938Z,6.00
2018-07-26T02:52:36.860Z,9.50
2018-07-26T02:53:36.785Z,7.20
2018-07-26T02:54:36.713Z,7.90
2018-07-26T02:55:36.635Z,5.80
2018-07-26T02:56:36.547Z,8.10
2018-07-26T02:57:36.471Z,6.70
2018-07-26T02:58:36.399Z,9.80
2018-07-26T02:59:36.322Z,6.50
2018-07-26T03:00:36.247Z,7.90
2018-07-26T03:01:36.160Z,7.80
2018-07-26T03:02:36.084Z,8.60
2018-07-26T03:03:36.009Z,9.60
2018-07-26T03:04:35.936Z,10.60
2018-07-26T03:05:35.862Z,14.00
2018-07-26T03:06:35.780Z,12.00
2018-07-26T03:07:35.713Z,11.40
2018-07-26T03:08:35.625Z,9.10
2018-07-26T03:09:35.548Z,11.50
2018-07-26T03:10:35.473Z,10.90
2018-07-26T03:11:35.398Z,8.80
2018-07-26T03:12:35.313Z,12.50
2018-07-26T03:13:35.237Z,10.60
2018-07-26T03:14:35.163Z,9.00
2018-07-26T03:15:35.089Z,12.70
2018-07-26T03:16:35.012Z,9.40
2018-07-26T03:17:34.926Z,8.30
2018-07-26T03:18:34.851Z,9.20
2018-07-26T03:19:34.776Z,8.30
2018-07-26T03:20:34.906Z,7.10
2018-07-26T03:21:34.629Z,9.70
2018-07-26T03:22:34.537Z,8.10
2018-07-26T03:23:34.461Z,6.90
2018-07-26T03:24:34.391Z,7.60
2018-07-26T03:25:34.313Z,11.90
2018-07-26T03:26:34.231Z,6.30
2018-07-26T03:27:34.154Z,6.70
2018-07-26T03:28:34.075Z,7.40
2018-07-26T03:29:34.000Z,7.40
2018-07-26T03:30:33.925Z,6.00
2018-07-26T03:31:33.837Z,6.60
2018-07-26T03:32:33.761Z,5.70
2018-07-26T03:33:33.687Z,7.90
2018-07-26T03:34:33.612Z,6.30
2018-07-26T03:35:33.537Z,8.60
2018-07-26T03:36:33.453Z,8.30
2018-07-26T03:37:33.379Z,6.70
2018-07-26T03:38:33.303Z,6.70
2018-07-26T03:39:33.227Z,6.50
2018-07-26T03:40:33.138Z,9.30
2018-07-26T03:41:33.063Z,10.40
2018-07-26T03:42:32.987Z,6.90
2018-07-26T03:43:32.947Z,7.00
2018-07-26T03:44:32.840Z,7.10
2018-07-26T03:45:32.754Z,6.70
2018-07-26T03:46:32.679Z,6.70
2018-07-26T03:47:32.604Z,9.20
2018-07-26T03:48:32.530Z,7.90
2018-07-26T03:49:32.440Z,7.00
2018-07-26T03:50:32.364Z,8.90
2018-07-26T03:51:32.291Z,8.30
2018-07-26T03:52:32.216Z,8.40
2018-07-26T03:53:32.142Z,6.40
2018-07-26T03:54:32.055Z,7.60
2018-07-26T03:55:31.979Z,8.00
2018-07-26T03:56:31.903Z,7.10
2018-07-26T03:57:31.830Z,7.10
2018-07-26T03:58:31.752Z,6.70
2018-07-26T03:59:31.667Z,7.00
2018-07-26T04:00:31.592Z,7.00
2018-07-26T04:01:31.517Z,7.80
2018-07-26T04:02:31.430Z,7.60
2018-07-26T04:03:31.356Z,7.10
2018-07-26T04:04:31.280Z,7.20
2018-07-26T04:05:31.232Z,7.90
2018-07-26T04:06:31.130Z,5.40
2018-07-26T04:07:31.042Z,6.90
2018-07-26T04:08:30.965Z,6.60
2018-07-26T04:09:30.890Z,5.70
2018-07-26T04:10:30.828Z,6.00
2018-07-26T04:11:30.729Z,6.00
2018-07-26T04:12:30.659Z,6.90
2018-07-26T04:13:30.581Z,6.30
2018-07-26T04:14:30.506Z,5.80
2018-07-26T04:15:30.420Z,6.60
2018-07-26T04:16:30.342Z,5.50
2018-07-26T04:17:30.267Z,5.60
2018-07-26T04:18:30.192Z,5.60
2018-07-26T04:19:30.117Z,6.20
2018-07-26T04:20:30.032Z,7.70
2018-07-26T04:21:29.956Z,6.20
2018-07-26T04:22:29.880Z,7.70
2018-07-26T04:23:29.810Z,5.60
2018-07-26T04:24:29.732Z,5.40
2018-07-26T04:25:29.645Z,5.40
2018-07-26T04:26:29.570Z,5.30
2018-07-26T04:27:29.498Z,6.30
2018-07-26T04:28:29.418Z,5.00
2018-07-26T04:29:29.332Z,6.80
2018-07-26T04:30:29.257Z,6.80
2018-07-26T04:31:29.182Z,5.10
2018-07-26T04:32:29.113Z,5.20
2018-07-26T04:33:29.035Z,6.80
2018-07-26T04:34:28.947Z,5.70
2018-07-26T04:35:28.874Z,6.70
2018-07-26T04:36:28.810Z,5.80
2018-07-26T04:37:28.721Z,6.40
2018-07-26T04:38:28.651Z,6.30
2018-07-26T04:39:28.560Z,5.90
2018-07-26T04:40:28.482Z,4.80
2018-07-26T04:41:28.408Z,5.10
2018-07-26T04:42:28.333Z,5.20
2018-07-26T04:43:28.259Z,5.20
2018-07-26T04:44:28.187Z,5.80
2018-07-26T04:45:28.098Z,6.40
2018-07-26T04:46:28.022Z,4.90
2018-07-26T04:47:27.947Z,4.90
2018-07-26T04:48:27.871Z,5.10
2018-07-26T04:49:27.797Z,4.90
2018-07-26T04:50:27.720Z,6.60
2018-07-26T04:51:27.633Z,4.80
2018-07-26T04:52:27.570Z,6.30
2018-07-26T04:53:27.487Z,6.90
2018-07-26T04:54:27.440Z,4.90
2018-07-26T04:55:27.334Z,4.80
2018-07-26T04:56:27.263Z,5.90
2018-07-26T04:57:27.187Z,5.40
2018-07-26T04:58:27.112Z,6.80
2018-07-26T04:59:27.025Z,4.60
2018-07-26T05:00:26.948Z,5.70
2018-07-26T05:01:26.874Z,4.90
2018-07-26T05:02:26.797Z,7.50
2018-07-26T05:03:26.722Z,7.50
2018-07-26T05:04:26.649Z,5.20
2018-07-26T05:05:26.574Z,6.50
2018-07-26T05:06:26.499Z,8.70
2018-07-26T05:07:26.425Z,7.40
2018-07-26T05:08:26.364Z,7.30
2018-07-26T05:09:26.275Z,6.10
2018-07-26T05:10:26.201Z,7.00
2018-07-26T05:11:26.125Z,7.00
2018-07-26T05:12:26.061Z,6.50
2018-07-26T05:13:25.973Z,8.30
2018-07-26T05:14:25.898Z,8.30
2018-07-26T05:15:25.823Z,4.90
2018-07-26T05:16:25.739Z,8.30
2018-07-26T05:17:25.668Z,5.70
2018-07-26T05:18:25.622Z,5.00
2018-07-26T05:19:25.515Z,5.80
2018-07-26T05:20:25.437Z,7.20
2018-07-26T05:21:25.362Z,5.20
2018-07-26T05:22:25.287Z,7.90
2018-07-26T05:23:25.213Z,6.40
2018-07-26T05:24:25.166Z,6.20
2018-07-26T05:25:25.063Z,7.20
2018-07-26T05:26:24.988Z,6.70
2018-07-26T05:27:24.913Z,5.50
2018-07-26T05:28:24.840Z,5.30
2018-07-26T05:29:24.765Z,6.10
2018-07-26T05:30:24.690Z,5.20
2018-07-26T05:31:24.615Z,4.80
2018-07-26T05:32:24.527Z,6.20
2018-07-26T05:33:24.451Z,5.20
2018-07-26T05:34:24.375Z,8.20
2018-07-26T05:35:24.301Z,7.40
2018-07-26T05:36:24.229Z,8.00
2018-07-26T05:37:24.172Z,5.60
2018-07-26T05:38:24.090Z,5.20
2018-07-26T05:39:24.003Z,8.60
2018-07-26T05:40:23.928Z,5.40
2018-07-26T05:41:23.853Z,6.90
2018-07-26T05:42:23.779Z,6.40
2018-07-26T05:43:23.705Z,5.90
2018-07-26T05:44:23.626Z,6.30
2018-07-26T05:45:23.551Z,8.50
2018-07-26T05:46:23.477Z,7.20
2018-07-26T05:47:23.402Z,5.60
2018-07-26T05:48:23.333Z,5.50
2018-07-26T05:49:23.254Z,5.00
2018-07-26T05:50:23.173Z,8.70
2018-07-26T05:51:23.093Z,10.00
2018-07-26T05:52:23.018Z,7.20
2018-07-26T05:53:23.006Z,5.90
2018-07-26T05:54:22.891Z,6.00
2018-07-26T05:55:22.790Z,6.10
2018-07-26T05:56:22.719Z,5.40
2018-07-26T05:57:22.643Z,7.20
2018-07-26T05:58:22.568Z,6.40
2018-07-26T05:59:22.492Z,6.20
2018-07-26T06:00:22.417Z,6.90
2018-07-26T06:01:22.342Z,7.30
2018-07-26T06:02:22.266Z,8.70
2018-07-26T06:03:22.194Z,8.00
2018-07-26T06:04:22.119Z,8.10
2018-07-26T06:05:22.044Z,5.90
2018-07-26T06:06:21.972Z,8.20
2018-07-26T06:07:21.894Z,7.10
2018-07-26T06:08:21.818Z,6.90
2018-07-26T06:09:21.742Z,5.70
2018-07-26T06:10:21.672Z,7.80
2018-07-26T06:11:21.592Z,7.00
2018-07-26T06:12:21.517Z,8.30
2018-07-26T06:13:21.442Z,9.60
2018-07-26T06:14:21.356Z,7.00
2018-07-26T06:15:21.281Z,6.70
2018-07-26T06:16:21.208Z,9.70
2018-07-26T06:17:21.134Z,6.70
2018-07-26T06:18:21.057Z,6.60
2018-07-26T06:19:20.982Z,6.20
2018-07-26T06:20:20.906Z,5.70
2018-07-26T06:21:20.830Z,8.40
2018-07-26T06:22:20.755Z,7.50
2018-07-26T06:23:20.681Z,6.50
2018-07-26T06:24:20.608Z,6.20
2018-07-26T06:25:20.533Z,9.00
2018-07-26T06:26:20.472Z,8.60
2018-07-26T06:27:20.383Z,7.60
2018-07-26T06:28:20.350Z,7.20
2018-07-26T06:29:20.233Z,8.90
2018-07-26T06:30:20.158Z,6.10
2018-07-26T06:31:20.084Z,7.20
2018-07-26T06:32:20.008Z,8.90
2018-07-26T06:33:19.999Z,10.10
2018-07-26T06:34:19.857Z,8.60
2018-07-26T06:35:19.782Z,7.70
2018-07-26T06:36:19.722Z,9.00
2018-07-26T06:37:19.634Z,9.20
2018-07-26T06:38:19.559Z,7.30
2018-07-26T06:39:19.485Z,7.10
2018-07-26T06:40:19.421Z,6.60
2018-07-26T06:41:19.333Z,8.20
2018-07-26T06:42:19.257Z,8.10
2018-07-26T06:43:19.183Z,8.30
2018-07-26T06:44:19.109Z,6.40
2018-07-26T06:45:19.038Z,6.50
2018-07-26T06:46:18.958Z,6.30
2018-07-26T06:47:18.885Z,7.10
2018-07-26T06:48:18.811Z,5.50
2018-07-26T06:49:18.738Z,8.00
2018-07-26T06:50:18.662Z,6.80
2018-07-26T06:51:18.598Z,6.20
2018-07-26T06:52:18.509Z,8.30
2018-07-26T06:53:18.449Z,6.60
2018-07-26T06:54:18.359Z,5.90
2018-07-26T06:55:18.285Z,8.40
2018-07-26T06:56:18.214Z,5.70
2018-07-26T06:57:18.149Z,7.00
2018-07-26T06:58:18.077Z,7.10
2018-07-26T06:59:17.999Z,8.80
2018-07-26T07:00:17.925Z,6.00
2018-07-26T07:01:17.850Z,5.40
2018-07-26T07:02:17.775Z,9.00
2018-07-26T07:03:17.701Z,7.60
2018-07-26T07:04:17.624Z,7.10
2018-07-26T07:05:17.549Z,8.40
2018-07-26T07:06:17.473Z,8.80
2018-07-26T07:07:17.399Z,6.00
2018-07-26T07:08:17.327Z,8.00
2018-07-26T07:09:17.250Z,8.30
2018-07-26T07:10:17.176Z,5.60
2018-07-26T07:11:17.113Z,7.30
2018-07-26T07:12:17.048Z,6.70
2018-07-26T07:13:16.961Z,6.50
2018-07-26T07:14:16.887Z,7.20
2018-07-26T07:15:16.812Z,7.80
2018-07-26T07:16:16.737Z,9.10
2018-07-26T07:17:16.662Z,7.10
2018-07-26T07:18:16.590Z,7.50
2018-07-26T07:19:16.511Z,7.20
2018-07-26T07:20:16.440Z,7.00
2018-07-26T07:21:16.366Z,10.70
2018-07-26T07:22:16.302Z,8.30
2018-07-26T07:23:16.229Z,7.20
2018-07-26T07:24:16.150Z,8.50
2018-07-26T07:25:16.084Z,8.30
2018-07-26T07:26:16.001Z,6.40
2018-07-26T07:27:15.926Z,6.70
2018-07-26T07:28:15.853Z,7.70
2018-07-26T07:29:15.790Z,9.60
2018-07-26T07:30:15.717Z,9.10
2018-07-26T07:31:15.640Z,6.80
2018-07-26T07:32:15.565Z,10.70
2018-07-26T07:33:15.500Z,9.00
2018-07-26T07:34:15.415Z,7.80
2018-07-26T07:35:15.355Z,9.90
2018-07-26T07:36:15.277Z,6.80
2018-07-26T07:37:15.202Z,5.90
2018-07-26T07:38:15.139Z,8.50
2018-07-26T07:39:15.079Z,8.20
2018-07-26T07:40:14.993Z,7.60
2018-07-26T07:41:14.916Z,7.50
2018-07-26T07:42:14.854Z,7.50
2018-07-26T07:43:14.780Z,7.10
2018-07-26T07:44:14.704Z,9.10
2018-07-26T07:45:14.639Z,6.90
2018-07-26T07:46:14.564Z,6.60
2018-07-26T07:47:14.536Z,6.80
2018-07-26T07:48:14.428Z,5.50
2018-07-26T07:49:14.365Z,7.20
2018-07-26T07:50:14.293Z,6.40
2018-07-26T07:51:14.229Z,6.20
2018-07-26T07:52:14.161Z,5.80
2018-07-26T07:53:14.096Z,4.60
2018-07-26T07:54:14.031Z,4.60
2018-07-26T07:55:13.961Z,5.70
2018-07-26T07:56:13.879Z,4.40
2018-07-26T07:57:13.816Z,6.70
2018-07-26T07:58:13.754Z,5.00
2018-07-26T07:59:13.679Z,5.10
2018-07-26T08:00:13.619Z,4.40
2018-07-26T08:01:13.558Z,5.50
2018-07-26T08:02:13.484Z,7.90
2018-07-26T08:03:13.419Z,5.40
2018-07-26T08:04:13.356Z,4.40
2018-07-26T08:05:13.324Z,5.30
2018-07-26T08:06:13.217Z,7.10
2018-07-26T08:07:13.155Z,8.10
2018-07-26T08:08:13.082Z,8.90
2018-07-26T08:09:13.020Z,6.10
2018-07-26T08:10:12.958Z,4.20
2018-07-26T08:11:12.922Z,6.70
2018-07-26T08:12:12.821Z,5.90
2018-07-26T08:13:12.758Z,7.10
2018-07-26T08:14:12.681Z,5.40
2018-07-26T08:15:12.617Z,4.70
2018-07-26T08:16:12.557Z,6.50
2018-07-26T08:17:12.495Z,4.60
2018-07-26T08:18:12.420Z,5.10
2018-07-26T08:19:12.358Z,4.90
2018-07-26T08:20:12.295Z,7.20
2018-07-26T08:21:12.235Z,5.80
2018-07-26T08:22:12.159Z,5.00
2018-07-26T08:23:12.095Z,6.80
2018-07-26T08:24:12.037Z,4.50
2018-07-26T08:25:11.970Z,5.90
2018-07-26T08:26:11.907Z,8.60
2018-07-26T08:27:11.838Z,7.90
2018-07-26T08:28:11.770Z,4.90
2018-07-26T08:29:11.711Z,5.50
2018-07-26T08:30:11.652Z,6.20
2018-07-26T08:31:11.572Z,5.90
2018-07-26T08:32:11.508Z,7.30
2018-07-26T08:33:11.444Z,6.50
2018-07-26T08:34:11.383Z,4.60
2018-07-26T08:35:11.324Z,7.50
2018-07-26T08:36:11.244Z,5.20
2018-07-26T08:37:11.182Z,4.70
2018-07-26T08:38:11.119Z,5.30
2018-07-26T08:39:11.058Z,5.70
2018-07-26T08:40:10.998Z,4.80
2018-07-26T08:41:10.949Z,5.30
2018-07-26T08:42:10.860Z,5.00
2018-07-26T08:43:10.797Z,5.10
2018-07-26T08:44:10.733Z,5.90
2018-07-26T08:45:10.672Z,5.60
2018-07-26T08:46:10.599Z,5.80
2018-07-26T08:47:10.534Z,6.30
2018-07-26T08:48:10.529Z,6.60
2018-07-26T08:49:10.411Z,4.40
2018-07-26T08:50:10.348Z,5.60
2018-07-26T08:51:10.287Z,7.00
2018-07-26T08:52:10.263Z,6.50
2018-07-26T08:53:10.162Z,9.30
2018-07-26T08:54:10.122Z,9.90
2018-07-26T08:55:10.028Z,7.70
2018-07-26T08:56:09.961Z,6.20
2018-07-26T08:57:09.896Z,4.90
2018-07-26T08:58:09.840Z,5.50
2018-07-26T08:59:09.788Z,6.70
2018-07-26T09:00:09.712Z,5.10
2018-07-26T09:01:09.660Z,5.50
2018-07-26T09:02:09.575Z,5.90
2018-07-26T09:03:09.513Z,4.60
2018-07-26T09:04:09.447Z,5.80
2018-07-26T09:05:09.433Z,6.40
2018-07-26T09:06:09.324Z,6.90
2018-07-26T09:07:09.261Z,6.30
2018-07-26T09:08:09.200Z,6.30
2018-07-26T09:09:09.140Z,4.70
2018-07-26T09:10:09.089Z,4.20
2018-07-26T09:11:09.005Z,5.10
2018-07-26T09:12:08.936Z,5.90
2018-07-26T09:13:08.873Z,4.50
2018-07-26T09:14:08.812Z,5.00
2018-07-26T09:15:08.752Z,6.40
2018-07-26T09:16:08.689Z,5.60
2018-07-26T09:17:08.671Z,6.80
2018-07-26T09:18:08.565Z,4.60
2018-07-26T09:19:08.514Z,5.70
2018-07-26T09:20:08.440Z,5.10
2018-07-26T09:21:08.374Z,4.90
2018-07-26T09:22:08.315Z,5.80
2018-07-26T09:23:08.238Z,6.20
2018-07-26T09:24:08.174Z,4.50
2018-07-26T09:25:08.113Z,4.80
2018-07-26T09:26:08.053Z,5.20
2018-07-26T09:27:07.988Z,7.40
2018-07-26T09:28:07.927Z,4.30
2018-07-26T09:29:07.866Z,4.80
2018-07-26T09:30:07.802Z,4.40
2018-07-26T09:31:07.742Z,4.50
2018-07-26T09:32:07.675Z,4.60
2018-07-26T09:33:07.666Z,6.60
2018-07-26T09:34:07.564Z,8.00
2018-07-26T09:35:07.491Z,5.40
2018-07-26T09:36:07.431Z,5.80
2018-07-26T09:37:07.366Z,4.90
2018-07-26T09:38:07.303Z,4.70
2018-07-26T09:39:07.242Z,6.00
2018-07-26T09:40:07.178Z,5.30
2018-07-26T09:41:07.134Z,4.90
2018-07-26T09:42:07.053Z,4.40
2018-07-26T09:43:06.991Z,7.30
2018-07-26T09:44:06.940Z,4.20
2018-07-26T09:45:06.865Z,4.60
2018-07-26T09:46:06.802Z,6.70
2018-07-26T09:47:06.743Z,6.70
2018-07-26T09:48:06.669Z,5.80
2018-07-26T09:49:06.605Z,5.60
2018-07-26T09:50:06.542Z,6.60
2018-07-26T09:51:06.479Z,4.80
2018-07-26T09:52:06.415Z,4.30
2018-07-26T09:53:06.358Z,5.70
2018-07-26T09:54:06.293Z,4.70
2018-07-26T09:55:06.241Z,4.60
2018-07-26T09:56:06.155Z,5.80
2018-07-26T09:57:06.103Z,4.70
2018-07-26T09:58:06.042Z,3.90
2018-07-26T09:59:05.967Z,5.50
2018-07-26T10:00:05.906Z,5.90
2018-07-26T10:01:05.844Z,6.40
2018-07-26T10:02:05.770Z,4.00
2018-07-26T10:03:05.708Z,4.30
2018-07-26T10:04:05.642Z,4.40
2018-07-26T10:05:05.567Z,4.20
2018-07-26T10:06:05.504Z,5.40
2018-07-26T10:07:05.442Z,4.40
2018-07-26T10:08:05.395Z,5.20
2018-07-26T10:09:05.308Z,4.70
2018-07-26T10:10:05.246Z,4.30
2018-07-26T10:11:05.187Z,6.00
2018-07-26T10:12:05.106Z,4.60
2018-07-26T10:13:05.044Z,4.10
2018-07-26T10:14:05.051Z,4.30
2018-07-26T10:15:04.942Z,8.90
2018-07-26T10:16:04.847Z,3.90
2018-07-26T10:17:04.782Z,4.70
2018-07-26T10:18:04.708Z,4.50
2018-07-26T10:19:04.647Z,4.60
2018-07-26T10:20:04.637Z,4.70
2018-07-26T10:21:04.506Z,5.00
2018-07-26T10:22:04.445Z,3.70
2018-07-26T10:23:04.370Z,6.80
2018-07-26T10:24:04.309Z,5.00
2018-07-26T10:25:04.247Z,6.00
2018-07-26T10:26:04.172Z,4.30
2018-07-26T10:27:04.111Z,6.00
2018-07-26T10:28:04.047Z,5.60
2018-07-26T10:29:03.977Z,6.10
2018-07-26T10:30:03.923Z,7.00
2018-07-26T10:31:03.847Z,5.60
2018-07-26T10:32:03.774Z,7.40
2018-07-26T10:33:03.720Z,4.30
2018-07-26T10:34:03.633Z,4.40
2018-07-26T10:35:03.572Z,5.00
2018-07-26T10:36:03.498Z,5.40
2018-07-26T10:37:03.435Z,4.10
2018-07-26T10:38:03.373Z,4.50
2018-07-26T10:39:03.298Z,5.20
2018-07-26T10:40:03.233Z,4.00
2018-07-26T10:41:03.172Z,5.30
2018-07-26T10:42:03.097Z,4.50
2018-07-26T10:43:03.033Z,6.40
2018-07-26T10:44:02.958Z,5.10
2018-07-26T10:45:02.897Z,5.40
2018-07-26T10:46:02.833Z,5.20
2018-07-26T10:47:02.772Z,4.80
2018-07-26T10:48:02.708Z,3.90
2018-07-26T10:49:02.628Z,5.70
2018-07-26T10:50:02.624Z,4.50
2018-07-26T10:51:02.500Z,5.30
2018-07-26T10:52:02.423Z,5.30
2018-07-26T10:53:02.375Z,4.50
2018-07-26T10:54:02.285Z,4.50
2018-07-26T10:55:02.223Z,5.90
2018-07-26T10:56:02.179Z,4.80
2018-07-26T10:57:02.088Z,4.50
2018-07-26T10:58:02.025Z,4.40
2018-07-26T10:59:01.963Z,5.70
2018-07-26T11:00:01.909Z,4.60
2018-07-26T11:01:01.827Z,8.00
2018-07-26T11:02:01.775Z,5.40
2018-07-26T11:03:01.706Z,5.50
2018-07-26T11:04:01.625Z,5.20
2018-07-26T11:05:01.575Z,6.10
2018-07-26T11:06:01.500Z,4.00
2018-07-26T11:07:01.436Z,4.60
2018-07-26T11:08:01.379Z,4.30
2018-07-26T11:09:01.301Z,4.80
2018-07-26T11:10:01.239Z,4.20
2018-07-26T11:11:01.176Z,3.90
2018-07-26T11:12:01.112Z,4.70
2018-07-26T11:13:01.051Z,4.60
2018-07-26T11:14:00.987Z,6.30
2018-07-26T11:15:00.964Z,4.00
2018-07-26T11:16:00.854Z,5.80
2018-07-26T11:17:00.790Z,4.20
2018-07-26T11:18:00.730Z,4.00
2018-07-26T11:19:00.670Z,5.10
2018-07-26T11:20:00.603Z,3.80
2018-07-26T11:21:00.540Z,4.40
2018-07-26T11:22:00.478Z,4.10
2018-07-26T11:23:00.414Z,4.50
2018-07-26T11:24:00.351Z,5.20
2018-07-26T11:25:00.288Z,3.90
2018-07-26T11:26:00.226Z,7.10
2018-07-26T11:27:00.164Z,3.60
2018-07-26T11:28:00.108Z,5.10
2018-07-26T11:29:00.054Z,4.50
2018-07-26T11:30:00.004Z,3.80
2018-07-26T11:30:59.917Z,4.20
2018-07-26T11:31:59.854Z,6.40
2018-07-26T11:32:59.794Z,4.60
2018-07-26T11:33:59.729Z,4.50
2018-07-26T11:34:59.666Z,4.30
2018-07-26T11:35:59.631Z,4.60
2018-07-26T11:36:59.555Z,4.50
2018-07-26T11:37:59.499Z,4.80
2018-07-26T11:38:59.427Z,3.60
2018-07-26T11:39:59.370Z,5.80
2018-07-26T11:40:59.310Z,6.10
2018-07-26T11:41:59.242Z,4.00
2018-07-26T11:42:59.180Z,3.70
2018-07-26T11:43:59.116Z,3.30
2018-07-26T11:44:59.053Z,4.00
2018-07-26T11:45:58.989Z,3.20
2018-07-26T11:46:58.929Z,4.20
2018-07-26T11:47:58.878Z,5.70
2018-07-26T11:48:58.804Z,3.60
2018-07-26T11:49:58.783Z,6.30
2018-07-26T11:50:58.690Z,4.50
2018-07-26T11:51:58.631Z,3.70
2018-07-26T11:52:58.568Z,3.60
2018-07-26T11:53:58.510Z,3.60
2018-07-26T11:54:58.443Z,5.60
2018-07-26T11:55:58.380Z,4.40
2018-07-26T11:56:58.357Z,4.10
2018-07-26T11:57:58.255Z,3.80
2018-07-26T11:58:58.205Z,4.20
2018-07-26T11:59:58.134Z,4.40
2018-07-26T12:00:58.068Z,3.90
2018-07-26T12:01:58.008Z,4.40
2018-07-26T12:02:57.944Z,4.10
2018-07-26T12:03:57.907Z,5.10
2018-07-26T12:04:57.832Z,5.00
2018-07-26T12:05:57.769Z,4.50
2018-07-26T12:06:57.707Z,4.80
2018-07-26T12:07:57.644Z,3.60
2018-07-26T12:08:57.582Z,5.90
2018-07-26T12:09:57.517Z,4.40
2018-07-26T12:10:57.456Z,5.00
2018-07-26T12:11:57.395Z,3.90
2018-07-26T12:12:57.333Z,6.40
2018-07-26T12:13:57.269Z,4.50
2018-07-26T12:14:57.207Z,4.80
2018-07-26T12:15:57.156Z,3.70
2018-07-26T12:16:57.092Z,4.10
2018-07-26T12:17:57.031Z,4.30
2018-07-26T12:18:56.968Z,4.90
2018-07-26T12:19:56.908Z,4.00
2018-07-26T12:20:56.845Z,4.30
2018-07-26T12:21:56.787Z,4.60
2018-07-26T12:22:56.721Z,4.70
2018-07-26T12:23:56.657Z,4.30
2018-07-26T12:24:56.593Z,4.20
2018-07-26T12:25:56.532Z,4.40
2018-07-26T12:26:56.583Z,3.40
2018-07-26T12:27:56.422Z,5.20
2018-07-26T12:28:56.361Z,4.40
2018-07-26T12:29:56.296Z,3.30
2018-07-26T12:30:56.237Z,4.10
2018-07-26T12:31:56.169Z,3.80
2018-07-26T12:32:56.108Z,3.90
2018-07-26T12:33:56.044Z,4.70
2018-07-26T12:34:55.982Z,3.90
2018-07-26T12:35:55.926Z,4.70
2018-07-26T12:36:55.858Z,5.20
2018-07-26T12:37:55.797Z,6.10
2018-07-26T12:38:55.744Z,5.10
2018-07-26T12:39:55.686Z,3.00
2018-07-26T12:40:55.622Z,3.30
2018-07-26T12:41:55.560Z,4.60
2018-07-26T12:42:55.498Z,3.20
2018-07-26T12:43:55.433Z,3.10
2018-07-26T12:44:55.372Z,3.70
2018-07-26T12:45:55.309Z,2.80
2018-07-26T12:46:55.245Z,5.60
2018-07-26T12:47:55.245Z,4.40
2018-07-26T12:48:55.136Z,3.00
2018-07-26T12:49:55.066Z,3.20
2018-07-26T12:50:55.013Z,3.30
2018-07-26T12:51:54.948Z,2.90
2018-07-26T12:52:54.890Z,3.70
2018-07-26T12:53:54.837Z,4.00
2018-07-26T12:54:54.783Z,3.60
2018-07-26T12:55:54.697Z,3.20
2018-07-26T12:56:54.634Z,3.70
2018-07-26T12:57:54.580Z,3.70
2018-07-26T12:58:54.511Z,3.60
2018-07-26T12:59:54.451Z,3.40
2018-07-26T13:00:54.399Z,3.60
2018-07-26T13:01:54.340Z,2.90
2018-07-26T13:02:54.276Z,3.10
2018-07-26T13:03:54.212Z,3.00
2018-07-26T13:04:54.148Z,3.20
2018-07-26T13:05:54.086Z,2.70
2018-07-26T13:06:54.023Z,4.00
2018-07-26T13:07:53.962Z,2.70
2018-07-26T13:08:53.899Z,2.80
2018-07-26T13:09:53.837Z,3.60
2018-07-26T13:10:53.774Z,3.90
2018-07-26T13:11:53.726Z,3.10
2018-07-26T13:12:53.652Z,2.80
2018-07-26T13:13:53.600Z,3.60
2018-07-26T13:14:53.592Z,3.40
2018-07-26T13:15:53.474Z,3.20
2018-07-26T13:16:53.412Z,3.80